Time;durP1;ratioP1;P1;durP2;ratioP2;P2;SDS_P1;SDS_P2;PMS_P1;PMS_P2;Temp;Humidity;BMP_temperature;BMP_pressure;BME280_temperature;BME280_humidity;BME280_pressure;Samples;Min_cycle;Max_cycle;Signal;HPM_P1;HPM_P2
2024/02/14 00:00:26;;;;;;;9.67;3.40;;;;;;;1.46;100.00;97787.38;5025516;28;20428;-79
2024/02/14 00:02:52;;;;;;;6.88;3.22;;;;;;;1.52;100.00;97787.44;5025422;28;20408;-79
2024/02/14 00:05:18;;;;;;;3.47;3.00;;;;;;;1.58;100.00;97787.72;5024802;28;20459;-80
2024/02/14 00:07:44;;;;;;;3.90;2.70;;;;;;;1.62;100.00;97789.78;5025508;28;20411;-79
2024/02/14 00:10:12;;;;;;;5.75;3.08;;;;;;;1.65;100.00;97799.03;5026131;28;20393;-80
2024/02/14 00:12:38;;;;;;;4.35;2.85;;;;;;;1.69;100.00;97800.28;5026528;28;20422;-80
2024/02/14 00:15:08;;;;;;;4.85;3.22;;;;;;;1.71;100.00;97793.06;5027269;28;20751;-80
2024/02/14 00:17:34;;;;;;;5.07;3.08;;;;;;;1.73;100.00;97796.31;5029480;28;20446;-78
2024/02/14 00:20:01;;;;;;;5.25;2.97;;;;;;;1.76;100.00;97786.31;5038751;28;20547;-79
2024/02/14 00:22:27;;;;;;;4.00;2.80;;;;;;;1.80;100.00;97795.41;5038834;28;20405;-80
2024/02/14 00:24:53;;;;;;;4.35;2.97;;;;;;;1.85;100.00;97800.03;5039072;28;20396;-80
2024/02/14 00:27:21;;;;;;;7.25;3.50;;;;;;;1.93;100.00;97803.34;5030719;28;20916;-80
2024/02/14 00:29:48;;;;;;;4.50;2.97;;;;;;;2.03;100.00;97797.78;5029124;28;20893;-79
2024/02/14 00:32:14;;;;;;;4.50;3.00;;;;;;;2.12;100.00;97791.47;5028520;28;20457;-79
2024/02/14 00:34:40;;;;;;;5.20;3.28;;;;;;;2.21;100.00;97792.94;5029125;28;20428;-80
2024/02/14 00:37:07;;;;;;;4.30;3.03;;;;;;;2.29;100.00;97800.66;5033001;28;20407;-80
2024/02/14 00:39:33;;;;;;;7.78;3.50;;;;;;;2.37;100.00;97804.94;5031323;28;20396;-81
2024/02/14 00:41:59;;;;;;;5.10;3.50;;;;;;;2.44;100.00;97808.41;5028681;28;20396;-80
2024/02/14 00:44:26;;;;;;;4.45;3.33;;;;;;;2.51;100.00;97798.00;5028149;28;20404;-80
2024/02/14 00:46:57;;;;;;;5.85;3.10;;;;;;;2.60;100.00;97805.53;5028536;28;20406;-80
2024/02/14 00:49:23;;;;;;;5.80;3.13;;;;;;;2.68;100.00;97802.78;5028560;28;20444;-80
2024/02/14 00:51:49;;;;;;;3.50;3.00;;;;;;;2.77;100.00;97811.28;5028784;28;20404;-80
2024/02/14 00:54:15;;;;;;;5.63;3.60;;;;;;;2.81;100.00;97804.66;5028986;28;20482;-80
2024/02/14 00:56:41;;;;;;;6.28;3.55;;;;;;;2.92;100.00;97800.72;5038556;28;20401;-80
2024/02/14 00:59:07;;;;;;;7.63;3.87;;;;;;;3.01;100.00;97812.63;5036687;28;20494;-80
2024/02/14 01:01:35;;;;;;;7.80;4.47;;;;;;;3.04;100.00;97793.94;5026628;28;20405;-80
2024/02/14 01:04:01;;;;;;;8.07;4.10;;;;;;;3.10;100.00;97809.66;5034544;28;20403;-79
2024/02/14 01:06:27;;;;;;;7.60;4.20;;;;;;;3.08;100.00;97795.19;5046073;28;20471;-81
2024/02/14 01:08:53;;;;;;;9.35;5.00;;;;;;;3.07;100.00;97799.59;5046383;28;20399;-80
2024/02/14 01:11:19;;;;;;;7.67;4.37;;;;;;;3.06;100.00;97808.44;5047582;28;20575;-80
2024/02/14 01:13:45;;;;;;;9.60;4.45;;;;;;;3.07;100.00;97811.88;5045595;28;20767;-80
2024/02/14 01:16:11;;;;;;;8.43;4.43;;;;;;;3.05;100.00;97821.69;5045441;28;20410;-80
2024/02/14 01:18:39;;;;;;;11.55;4.97;;;;;;;3.07;100.00;97817.91;5045456;28;20486;-80
2024/02/14 01:21:05;;;;;;;7.57;4.85;;;;;;;3.07;100.00;97812.69;5044687;28;20426;-79
2024/02/14 01:23:32;;;;;;;9.82;4.63;;;;;;;3.07;100.00;97811.88;5044940;28;20465;-80
2024/02/14 01:25:58;;;;;;;10.43;5.15;;;;;;;3.05;100.00;97812.06;5045337;28;20395;-80
2024/02/14 01:28:24;;;;;;;9.63;5.32;;;;;;;3.06;100.00;97800.59;5044329;28;20403;-80
2024/02/14 01:30:51;;;;;;;9.27;4.90;;;;;;;3.08;100.00;97800.41;5043604;28;20419;-80
2024/02/14 01:33:17;;;;;;;11.38;5.50;;;;;;;3.07;100.00;97802.22;5044259;28;20421;-80
2024/02/14 01:35:44;;;;;;;11.43;5.22;;;;;;;3.11;100.00;97792.97;5044639;28;20402;-80
2024/02/14 01:38:12;;;;;;;9.13;5.20;;;;;;;3.14;100.00;97798.81;5045491;28;20434;-80
2024/02/14 01:40:42;;;;;;;7.53;4.47;;;;;;;3.15;100.00;97788.16;5044396;28;20447;-79
2024/02/14 01:43:09;;;;;;;6.97;5.07;;;;;;;3.16;100.00;97792.38;5044443;28;20403;-79
2024/02/14 01:45:35;;;;;;;8.30;5.05;;;;;;;3.15;100.00;97782.94;5044874;28;20449;-80
2024/02/14 01:48:02;;;;;;;10.13;5.00;;;;;;;3.18;100.00;97785.16;5044837;28;20911;-80
2024/02/14 01:50:29;;;;;;;8.00;5.03;;;;;;;3.19;100.00;97794.63;5044249;28;20403;-80
2024/02/14 01:52:59;;;;;;;10.32;5.20;;;;;;;3.21;100.00;97797.03;5044832;28;20419;-80
2024/02/14 01:55:27;;;;;;;5.88;4.13;;;;;;;3.22;100.00;97789.00;5041026;28;20402;-79
2024/02/14 01:57:54;;;;;;;5.88;4.28;;;;;;;3.23;100.00;97793.25;5040720;28;20391;-80
2024/02/14 02:00:20;;;;;;;6.63;4.35;;;;;;;3.26;100.00;97792.03;5040115;28;20490;-80
2024/02/14 02:02:47;;;;;;;6.50;4.28;;;;;;;3.28;100.00;97793.47;5039734;28;20399;-79
2024/02/14 02:05:14;;;;;;;5.13;3.77;;;;;;;3.30;100.00;97788.84;5040134;28;20392;-80
2024/02/14 02:07:42;;;;;;;4.70;3.67;;;;;;;3.30;100.00;97781.00;5040760;28;20422;-80
2024/02/14 02:10:13;;;;;;;6.47;3.80;;;;;;;3.33;100.00;97785.00;5040513;28;20399;-80
2024/02/14 02:12:39;;;;;;;7.43;4.25;;;;;;;3.33;100.00;97780.59;5040481;28;20395;-80
2024/02/14 02:15:07;;;;;;;4.63;3.67;;;;;;;3.35;100.00;97783.81;5039901;28;20898;-80
2024/02/14 02:17:36;;;;;;;5.20;4.20;;;;;;;3.36;100.00;97777.59;5040031;28;20860;-80
2024/02/14 02:20:02;;;;;;;6.85;4.47;;;;;;;3.38;100.00;97782.63;5040160;28;20401;-80
2024/02/14 02:22:35;;;;;;;7.72;4.20;;;;;;;3.38;100.00;97774.78;5039079;28;20468;-79
2024/02/14 02:25:02;;;;;;;7.88;4.38;;;;;;;3.39;100.00;97776.38;5039583;28;20396;-80
2024/02/14 02:27:28;;;;;;;9.30;4.40;;;;;;;3.38;100.00;97769.56;5042881;28;20470;-79
2024/02/14 02:29:54;;;;;;;5.75;4.00;;;;;;;3.39;100.00;97776.38;5043691;28;20395;-80
2024/02/14 02:32:21;;;;;;;7.45;3.90;;;;;;;3.37;100.00;97766.13;5040726;28;20411;-79
2024/02/14 02:34:47;;;;;;;5.80;3.90;;;;;;;3.36;100.00;97777.59;5040842;28;20434;-80
2024/02/14 02:37:13;;;;;;;6.37;3.70;;;;;;;3.33;100.00;97764.88;5040310;28;20657;-80
2024/02/14 02:39:39;;;;;;;4.40;3.53;;;;;;;3.29;100.00;97757.63;5040454;28;20406;-80
2024/02/14 02:42:08;;;;;;;4.97;3.70;;;;;;;3.25;100.00;97757.22;5038840;28;20759;-80
2024/02/14 02:44:34;;;;;;;4.50;3.40;;;;;;;3.20;100.00;97749.16;5039738;28;20418;-79
2024/02/14 02:47:00;;;;;;;4.15;3.30;;;;;;;3.17;100.00;97752.16;5039802;28;20395;-80
2024/02/14 02:49:26;;;;;;;4.80;3.50;;;;;;;3.14;100.00;97752.56;5039567;28;20804;-79
2024/02/14 02:51:52;;;;;;;4.82;3.40;;;;;;;3.13;100.00;97745.69;5040212;28;20836;-79
2024/02/14 02:54:19;;;;;;;4.60;3.80;;;;;;;3.13;100.00;97734.44;5039374;28;20422;-79
2024/02/14 02:56:45;;;;;;;3.63;3.17;;;;;;;3.14;100.00;97725.59;5039440;28;20466;-79
2024/02/14 02:59:13;;;;;;;4.72;3.53;;;;;;;3.15;100.00;97728.00;5040380;28;20426;-79
2024/02/14 03:01:40;;;;;;;3.77;2.97;;;;;;;3.17;100.00;97728.59;5039907;28;20403;-80
2024/02/14 03:04:08;;;;;;;4.07;3.17;;;;;;;3.18;100.00;97713.72;5041293;28;20899;-80
2024/02/14 03:06:34;;;;;;;3.10;2.53;;;;;;;3.17;100.00;97718.13;5044556;28;20395;-79
2024/02/14 03:09:00;;;;;;;3.88;2.60;;;;;;;3.16;100.00;97731.44;5044635;28;20797;-79
2024/02/14 03:11:27;;;;;;;4.47;3.10;;;;;;;3.13;100.00;97734.44;5045113;28;20434;-80
2024/02/14 03:13:53;;;;;;;4.97;3.75;;;;;;;3.05;100.00;97733.59;5043477;28;20419;-79
2024/02/14 03:16:20;;;;;;;5.30;3.80;;;;;;;2.99;100.00;97731.75;5044426;28;20431;-79
2024/02/14 03:18:47;;;;;;;4.35;3.17;;;;;;;2.93;100.00;97742.97;5044674;28;20395;-79
2024/02/14 03:21:13;;;;;;;5.65;3.50;;;;;;;2.87;100.00;97756.81;5043835;28;20688;-79
2024/02/14 03:23:39;;;;;;;6.85;4.22;;;;;;;2.80;100.00;97745.53;5044490;28;20413;-79
2024/02/14 03:26:07;;;;;;;5.90;4.18;;;;;;;2.76;100.00;97743.50;5044548;28;20407;-79
2024/02/14 03:28:33;;;;;;;5.15;4.00;;;;;;;2.69;100.00;97754.72;5044715;28;20400;-79
2024/02/14 03:30:59;;;;;;;7.87;4.43;;;;;;;2.64;100.00;97761.50;5044226;28;20474;-80
2024/02/14 03:33:28;;;;;;;7.45;4.57;;;;;;;2.57;100.00;97765.88;5043675;28;20450;-80
2024/02/14 03:35:55;;;;;;;7.32;3.95;;;;;;;2.51;100.00;97770.06;5044069;28;20395;-80
2024/02/14 03:38:26;;;;;;;5.90;4.10;;;;;;;2.43;100.00;97772.84;5044152;28;20415;-80
2024/02/14 03:40:52;;;;;;;7.00;4.20;;;;;;;2.41;100.00;97776.63;5044536;28;20403;-80
2024/02/14 03:43:18;;;;;;;5.70;3.92;;;;;;;2.40;100.00;97773.22;5044254;28;20403;-79
2024/02/14 03:45:44;;;;;;;7.15;3.90;;;;;;;2.38;100.00;97774.41;5045520;28;20407;-80
2024/02/14 03:48:11;;;;;;;4.95;3.50;;;;;;;2.37;100.00;97784.03;5044123;28;20403;-80
2024/02/14 03:50:40;;;;;;;5.55;3.80;;;;;;;2.36;100.00;97784.22;5044264;28;20403;-80
2024/02/14 03:53:06;;;;;;;4.60;3.80;;;;;;;2.37;100.00;97783.22;5046777;28;20407;-80
2024/02/14 03:55:32;;;;;;;7.05;3.90;;;;;;;2.37;100.00;97786.66;5047546;28;20442;-79
2024/02/14 03:57:58;;;;;;;6.65;4.03;;;;;;;2.37;100.00;97781.44;5048637;28;20912;-79
2024/02/14 04:00:25;;;;;;;6.43;3.60;;;;;;;2.37;100.00;97789.28;5047737;28;20406;-80
2024/02/14 04:02:58;;;;;;;5.00;3.60;;;;;;;2.38;100.00;97777.81;5047598;28;20398;-79
2024/02/14 04:05:24;;;;;;;4.85;3.58;;;;;;;2.39;100.00;97762.97;5048248;28;20796;-79
2024/02/14 04:07:53;;;;;;;4.20;3.42;;;;;;;2.41;100.00;97766.16;5048142;28;20402;-80
2024/02/14 04:10:19;;;;;;;5.30;3.53;;;;;;;2.42;100.00;97766.00;5048713;28;20910;-79
2024/02/14 04:12:45;;;;;;;4.50;3.70;;;;;;;2.44;100.00;97764.00;5047871;28;20391;-79
2024/02/14 04:15:12;;;;;;;6.15;3.80;;;;;;;2.45;100.00;97762.19;5048577;28;20423;-80
2024/02/14 04:17:38;;;;;;;6.47;4.00;;;;;;;2.50;100.00;97765.03;5047952;28;20429;-79
2024/02/14 04:20:06;;;;;;;7.38;4.40;;;;;;;2.56;100.00;97774.72;5049578;28;20493;-80
2024/02/14 04:22:32;;;;;;;7.35;4.22;;;;;;;2.64;100.00;97782.41;5049871;28;20410;-80
2024/02/14 04:24:59;;;;;;;4.47;3.35;;;;;;;2.68;100.00;97771.41;5050703;28;20419;-80
2024/02/14 04:27:27;;;;;;;5.43;3.75;;;;;;;2.72;100.00;97771.81;5055791;28;20407;-80
2024/02/14 04:29:53;;;;;;;5.70;3.70;;;;;;;2.79;100.00;97780.50;5059793;28;20399;-80
2024/02/14 04:32:19;;;;;;;7.90;3.97;;;;;;;2.86;100.00;97770.09;5059520;28;20386;-80
2024/02/14 04:34:45;;;;;;;4.13;2.83;;;;;;;2.89;100.00;97783.59;5051106;28;20426;-80
2024/02/14 04:37:13;;;;;;;4.28;3.03;;;;;;;2.88;100.00;97779.38;5047457;28;20407;-80
2024/02/14 04:39:39;;;;;;;5.65;3.45;;;;;;;2.90;100.00;97784.41;5046522;28;20980;-79
2024/02/14 04:42:07;;;;;;;4.85;3.13;;;;;;;2.94;100.00;97777.78;5046853;28;20402;-80
2024/02/14 04:44:34;;;;;;;4.22;2.95;;;;;;;2.97;100.00;97780.00;5046630;28;20759;-79
2024/02/14 04:47:00;;;;;;;4.13;2.80;;;;;;;3.02;100.00;97777.63;5047122;28;20434;-78
2024/02/14 04:49:28;;;;;;;6.60;3.50;;;;;;;3.08;100.00;97784.72;5047241;28;20887;-80
2024/02/14 04:51:55;;;;;;;11.57;4.60;;;;;;;3.14;100.00;97777.91;5046546;28;20457;-79
2024/02/14 04:54:21;;;;;;;6.35;3.15;;;;;;;3.30;100.00;97786.22;5046734;28;20454;-80
2024/02/14 04:56:47;;;;;;;3.90;3.20;;;;;;;3.39;100.00;97790.28;5046427;28;20455;-80
2024/02/14 04:59:15;;;;;;;4.00;2.90;;;;;;;3.46;100.00;97788.47;5046573;28;20398;-80
2024/02/14 05:01:41;;;;;;;5.20;3.30;;;;;;;3.53;100.00;97785.09;5046990;28;20453;-80
2024/02/14 05:04:07;;;;;;;9.65;3.95;;;;;;;3.54;100.00;97787.50;5045803;28;20776;-80
2024/02/14 05:06:33;;;;;;;8.37;4.03;;;;;;;3.59;100.00;97797.41;5045568;28;20395;-80
2024/02/14 05:08:59;;;;;;;13.40;4.10;;;;;;;3.73;100.00;97785.97;5046389;28;20411;-80
2024/02/14 05:11:26;;;;;;;7.80;3.25;;;;;;;3.82;100.00;97782.97;5046445;28;20785;-80
2024/02/14 05:13:52;;;;;;;6.40;3.33;;;;;;;3.87;100.00;97774.50;5046115;28;20415;-80
2024/02/14 05:16:20;;;;;;;7.05;3.20;;;;;;;3.92;100.00;97787.81;5046433;28;20429;-79
2024/02/14 05:18:47;;;;;;;3.47;2.72;;;;;;;3.95;100.00;97773.53;5046127;28;20399;-80
2024/02/14 05:21:13;;;;;;;6.63;3.27;;;;;;;3.93;100.00;97778.94;5046812;28;20865;-80
2024/02/14 05:23:39;;;;;;;8.50;3.30;;;;;;;3.99;100.00;97783.38;5046374;28;20438;-79
2024/02/14 05:26:06;;;;;;;6.53;3.47;;;;;;;3.96;100.00;97781.19;5046643;28;20402;-80
2024/02/14 05:28:32;;;;;;;8.00;3.55;;;;;;;3.97;100.00;97768.91;5047426;28;20391;-80
2024/02/14 05:31:00;;;;;;;6.82;3.30;;;;;;;4.09;100.00;97775.16;5047064;28;20410;-80
2024/02/14 05:33:27;;;;;;;4.03;2.63;;;;;;;4.13;100.00;97774.56;5029708;28;20427;-78
2024/02/14 05:35:54;;;;;;;3.22;2.58;;;;;;;4.13;100.00;97769.31;5047653;28;20399;-79
2024/02/14 05:38:20;;;;;;;3.30;2.50;;;;;;;4.12;100.00;97778.19;5046334;28;20396;-79
2024/02/14 05:40:46;;;;;;;2.67;2.20;;;;;;;4.10;100.00;97774.94;5045877;28;20414;-79
2024/02/14 05:43:12;;;;;;;3.15;1.90;;;;;;;4.09;100.00;97785.63;5045339;28;20876;-79
2024/02/14 05:45:39;;;;;;;2.30;1.88;;;;;;;4.07;100.00;97785.81;5044671;28;20423;-79
2024/02/14 05:48:05;;;;;;;3.08;2.00;;;;;;;4.06;100.00;97772.94;5044751;28;20441;-79
2024/02/14 05:50:33;;;;;;;3.30;2.17;;;;;;;4.03;100.00;97774.13;5046817;28;20422;-79
2024/02/14 05:53:00;;;;;;;3.15;2.20;;;;;;;4.00;100.00;97777.16;5047308;28;20400;-79
2024/02/14 05:55:26;;;;;;;2.42;2.10;;;;;;;3.97;100.00;97774.13;5045535;28;20434;-79
2024/02/14 05:57:53;;;;;;;2.25;2.10;;;;;;;3.93;100.00;97781.56;5045149;28;20399;-79
2024/02/14 06:00:20;;;;;;;3.07;2.00;;;;;;;3.92;100.00;97779.13;5044859;28;20532;-79
2024/02/14 06:02:47;;;;;;;2.33;2.13;;;;;;;3.89;100.00;97777.75;5045104;28;20484;-80
2024/02/14 06:05:13;;;;;;;2.40;2.10;;;;;;;3.85;100.00;97781.75;5044134;28;20399;-79
2024/02/14 06:07:41;;;;;;;9.55;3.67;;;;;;;3.79;100.00;97770.25;5044415;28;20418;-80
2024/02/14 06:10:09;;;;;;;10.70;3.78;;;;;;;3.78;100.00;97771.28;5045119;28;20476;-80
2024/02/14 06:12:35;;;;;;;6.40;3.40;;;;;;;3.89;100.00;97762.03;5005825;28;20475;-79
2024/02/14 06:15:01;;;;;;;4.18;3.20;;;;;;;3.95;100.00;97768.28;5024213;28;20416;-79
2024/02/14 06:17:30;;;;;;;8.15;3.55;;;;;;;3.94;100.00;97764.84;5029582;28;20429;-82
2024/02/14 06:19:56;;;;;;;4.93;3.25;;;;;;;3.97;100.00;97761.84;5036096;28;20418;-82
2024/02/14 06:22:23;;;;;;;7.35;3.60;;;;;;;4.01;100.00;97770.91;5035937;28;20407;-79
2024/02/14 06:24:50;;;;;;;6.55;3.20;;;;;;;4.03;100.00;97768.91;5036269;28;20399;-78
2024/02/14 06:27:16;;;;;;;8.57;3.20;;;;;;;4.02;100.00;97772.53;5035128;28;20465;-78
2024/02/14 06:29:42;;;;;;;4.55;2.90;;;;;;;4.19;100.00;97767.72;5034913;28;20390;-78
2024/02/14 06:32:09;;;;;;;4.53;2.90;;;;;;;4.26;100.00;97777.19;5035910;28;20461;-79
2024/02/14 06:34:35;;;;;;;5.43;2.85;;;;;;;4.31;100.00;97776.56;5035556;28;20510;-78
2024/02/14 06:37:01;;;;;;;4.40;2.60;;;;;;;4.37;100.00;97790.66;5037128;28;20414;-79
2024/02/14 06:39:27;;;;;;;7.43;3.10;;;;;;;4.36;100.00;97792.47;5036856;28;20391;-79
2024/02/14 06:41:55;;;;;;;5.20;2.97;;;;;;;4.40;100.00;97792.91;5050385;28;20399;-79
2024/02/14 06:44:21;;;;;;;4.40;2.58;;;;;;;4.46;100.00;97794.72;5035019;28;20910;-79
2024/02/14 06:46:47;;;;;;;9.10;2.90;;;;;;;4.51;100.00;97800.19;5035285;28;20391;-79
2024/02/14 06:49:15;;;;;;;6.07;3.03;;;;;;;4.50;100.00;97793.31;5035359;28;20395;-80
2024/02/14 06:51:41;;;;;;;4.63;2.67;;;;;;;4.60;100.00;97801.56;5036209;28;20410;-80
2024/02/14 06:54:07;;;;;;;6.25;2.80;;;;;;;4.50;100.00;97801.19;5036405;28;20418;-80
2024/02/14 06:56:35;;;;;;;5.70;2.80;;;;;;;4.60;100.00;97794.50;5042113;28;20433;-79
2024/02/14 06:59:03;;;;;;;12.50;3.40;;;;;;;4.54;100.00;97795.31;5042863;28;20417;-80
2024/02/14 07:01:29;;;;;;;4.88;2.70;;;;;;;4.59;100.00;97799.94;5043741;28;20439;-80
2024/02/14 07:03:55;;;;;;;4.30;2.60;;;;;;;4.62;100.00;97794.31;5044579;28;20453;-79
2024/02/14 07:06:22;;;;;;;6.40;2.63;;;;;;;4.60;100.00;97801.56;5043836;28;20399;-80
2024/02/14 07:08:48;;;;;;;5.88;2.75;;;;;;;4.64;100.00;97800.16;5042092;28;20444;-80
2024/02/14 07:11:18;;;;;;;4.43;2.63;;;;;;;4.65;100.00;97807.03;5041272;28;20399;-80
2024/02/14 07:13:44;;;;;;;9.93;2.83;;;;;;;4.54;100.00;97808.44;5041235;28;20423;-79
2024/02/14 07:16:11;;;;;;;5.90;2.70;;;;;;;4.68;100.00;97803.97;5037329;28;20391;-79
2024/02/14 07:18:37;;;;;;;6.72;2.72;;;;;;;4.71;100.00;97816.69;5035625;28;20395;-77
2024/02/14 07:21:05;;;;;;;8.17;2.60;;;;;;;4.74;100.00;97816.28;5035987;28;20483;-78
2024/02/14 07:23:34;;;;;;;4.00;2.40;;;;;;;4.85;100.00;97825.34;5037888;28;20502;-78
2024/02/14 07:26:02;;;;;;;6.68;2.60;;;;;;;4.91;100.00;97824.53;5038734;28;21605;-76
2024/02/14 07:28:32;;;;;;;4.07;2.50;;;;;;;4.96;100.00;97830.75;5031875;28;20394;-82
2024/02/14 07:30:58;;;;;;;3.42;2.10;;;;;;;4.98;100.00;97830.56;5024379;28;20410;-76
2024/02/14 07:33:25;;;;;;;2.97;2.30;;;;;;;5.01;100.00;97830.97;5035328;28;20522;-78
2024/02/14 07:35:51;;;;;;;5.60;2.87;;;;;;;5.01;100.00;97833.59;5040076;28;20402;-79
2024/02/14 07:38:18;;;;;;;4.30;2.03;;;;;;;5.08;100.00;97833.59;5044303;28;20943;-79
2024/02/14 07:40:44;;;;;;;2.88;1.90;;;;;;;5.12;100.00;97836.59;5037303;28;20401;-79
2024/02/14 07:43:10;;;;;;;2.53;1.98;;;;;;;5.16;100.00;97838.63;5048924;28;20415;-79
2024/02/14 07:45:37;;;;;;;2.20;1.92;;;;;;;5.22;100.00;97840.41;5060538;28;20408;-79
2024/02/14 07:48:04;;;;;;;3.75;2.22;;;;;;;5.28;100.00;97844.03;5048710;28;20466;-79
2024/02/14 07:50:32;;;;;;;3.28;2.00;;;;;;;5.35;100.00;97842.19;5047658;28;20402;-80
2024/02/14 07:52:58;;;;;;;2.30;1.70;;;;;;;5.45;100.00;97851.25;5042856;28;20407;-80
2024/02/14 07:55:24;;;;;;;2.58;2.10;;;;;;;5.58;100.00;97852.22;5048236;28;20397;-79
2024/02/14 07:57:52;;;;;;;3.22;2.03;;;;;;;5.70;100.00;97851.38;5042410;28;20449;-79
2024/02/14 08:00:22;;;;;;;3.40;2.20;;;;;;;5.71;100.00;97860.84;5043090;28;20412;-79
2024/02/14 08:02:48;;;;;;;4.10;2.20;;;;;;;5.77;100.00;97852.16;5042916;28;20410;-79
2024/02/14 08:05:14;;;;;;;3.80;2.40;;;;;;;5.80;100.00;97861.44;5046541;28;20904;-79
2024/02/14 08:07:42;;;;;;;3.85;2.20;;;;;;;5.90;100.00;97848.69;5056002;28;20447;-79
2024/02/14 08:10:09;;;;;;;4.03;2.45;;;;;;;5.91;100.00;97863.44;5051136;28;20413;-80
2024/02/14 08:12:35;;;;;;;4.88;2.10;;;;;;;5.99;100.00;97857.94;5052354;28;20470;-78
2024/02/14 08:15:04;;;;;;;6.63;2.10;;;;;;;6.06;100.00;97866.59;5046233;28;20419;-79
2024/02/14 08:17:30;;;;;;;5.22;2.40;;;;;;;6.07;100.00;97864.78;5042597;28;20399;-80
2024/02/14 08:19:56;;;;;;;5.93;2.60;;;;;;;6.06;100.00;97863.97;5038504;28;20413;-80
2024/02/14 08:22:23;;;;;;;7.15;2.50;;;;;;;6.18;100.00;97866.72;5038151;28;20492;-78
2024/02/14 08:24:50;;;;;;;4.32;2.20;;;;;;;6.21;100.00;97863.69;5031921;28;20460;-78
2024/02/14 08:27:17;;;;;;;4.60;2.20;;;;;;;6.40;100.00;97865.38;5042678;28;20426;-78
2024/02/14 08:29:44;;;;;;;5.30;2.60;;;;;;;6.35;100.00;97864.41;5040281;28;20461;-79
2024/02/14 08:32:10;;;;;;;5.60;2.70;;;;;;;6.47;100.00;97867.97;5028899;28;20414;-79
2024/02/14 08:34:36;;;;;;;5.50;2.58;;;;;;;6.66;100.00;97872.28;5044500;28;20457;-79
2024/02/14 08:37:02;;;;;;;3.67;2.35;;;;;;;6.75;100.00;97872.84;5051222;28;20397;-80
2024/02/14 08:39:28;;;;;;;3.63;2.17;;;;;;;6.95;100.00;97876.09;5057451;28;20416;-78
2024/02/14 08:41:56;;;;;;;5.13;2.03;;;;;;;7.05;100.00;97876.44;5071232;28;20495;-78
2024/02/14 08:44:22;;;;;;;4.32;2.25;;;;;;;7.18;100.00;97873.66;5056252;28;20397;-78
2024/02/14 08:46:49;;;;;;;3.25;2.13;;;;;;;7.31;100.00;97876.16;5056041;28;20480;-78
2024/02/14 08:49:15;;;;;;;4.93;2.25;;;;;;;7.32;100.00;97869.88;5045342;28;20405;-79
2024/02/14 08:51:43;;;;;;;2.80;1.95;;;;;;;7.50;100.00;97868.28;5039404;28;20468;-77
2024/02/14 08:54:10;;;;;;;3.70;1.80;;;;;;;7.55;100.00;97871.06;5034351;28;20419;-80
2024/02/14 08:56:37;;;;;;;3.92;2.28;;;;;;;7.63;100.00;97871.56;5043411;28;20393;-80
2024/02/14 08:59:06;;;;;;;3.25;1.85;;;;;;;7.68;100.00;97873.53;5045993;28;20401;-80
2024/02/14 09:01:32;;;;;;;1.93;1.73;;;;;;;7.74;100.00;97864.78;5040830;28;20423;-80
2024/02/14 09:03:59;;;;;;;3.45;2.03;;;;;;;7.64;100.00;97867.91;5045915;28;20410;-80
2024/02/14 09:06:28;;;;;;;2.38;1.90;;;;;;;7.79;100.00;97867.53;5051970;28;20689;-79
2024/02/14 09:08:54;;;;;;;3.30;1.70;;;;;;;7.86;100.00;97870.09;5048377;28;20401;-80
2024/02/14 09:11:22;;;;;;;3.78;2.00;;;;;;;7.88;100.00;97871.50;5056416;28;20444;-80
2024/02/14 09:13:50;;;;;;;3.40;1.85;;;;;;;7.89;100.00;97873.09;5048396;28;20415;-79
2024/02/14 09:16:18;;;;;;;5.28;2.42;;;;;;;7.70;100.00;97876.75;5051548;28;20405;-80
2024/02/14 09:18:46;;;;;;;5.37;2.07;;;;;;;7.71;100.00;97876.56;5050142;28;20393;-80
2024/02/14 09:21:14;;;;;;;4.32;1.83;;;;;;;7.75;100.00;97882.16;5041743;28;20746;-77
2024/02/14 09:23:40;;;;;;;5.93;2.30;;;;;;;7.58;100.00;97884.59;5041923;28;20431;-78
2024/02/14 09:26:07;;;;;;;2.35;1.80;;;;;;;7.84;100.00;97888.75;5043132;28;20490;-78
2024/02/14 09:28:34;;;;;;;2.15;1.73;;;;;;;7.98;100.00;97884.13;5050496;28;20448;-78
2024/02/14 09:31:03;;;;;;;2.92;1.80;;;;;;;7.96;100.00;97880.94;5046018;28;20401;-78
2024/02/14 09:33:31;;;;;;;3.28;1.88;;;;;;;8.06;100.00;97879.34;5040136;28;20465;-79
2024/02/14 09:35:57;;;;;;;5.82;2.33;;;;;;;8.19;100.00;97883.66;5039643;28;20406;-80
2024/02/14 09:38:23;;;;;;;5.20;2.05;;;;;;;8.23;100.00;97887.47;5047470;28;20400;-80
2024/02/14 09:40:53;;;;;;;2.35;1.70;;;;;;;8.39;100.00;97884.22;5044258;28;20399;-77
2024/02/14 09:43:28;;;;;;;3.72;1.83;;;;;;;8.43;100.00;97888.00;5051050;28;20390;-78
2024/02/14 09:45:54;;;;;;;3.40;2.10;;;;;;;8.51;100.00;97882.41;5038410;28;20402;-78
2024/02/14 09:48:21;;;;;;;4.38;1.95;;;;;;;8.56;100.00;97873.84;5043748;28;20406;-80
2024/02/14 09:50:50;;;;;;;3.08;1.70;;;;;;;8.48;100.00;97874.16;5043377;28;20399;-80
2024/02/14 09:53:16;;;;;;;3.22;2.00;;;;;;;8.55;100.00;97869.59;5048573;28;20408;-80
2024/02/14 09:55:45;;;;;;;2.40;1.70;;;;;;;8.77;100.00;97883.88;5038549;28;20517;-80
2024/02/14 09:58:11;;;;;;;2.92;1.80;;;;;;;8.91;100.00;97881.81;5048196;28;20437;-80
2024/02/14 10:00:38;;;;;;;2.42;1.45;;;;;;;9.17;100.00;97872.66;5039340;28;20490;-80
2024/02/14 10:03:05;;;;;;;3.13;1.73;;;;;;;9.47;100.00;97865.38;5038428;28;20938;-80
2024/02/14 10:05:31;;;;;;;1.90;1.43;;;;;;;10.10;100.00;97865.34;5037972;28;20399;-81
2024/02/14 10:07:59;;;;;;;1.80;1.38;;;;;;;11.27;100.00;97883.22;5049109;28;20429;-80
2024/02/14 10:10:25;;;;;;;1.60;1.20;;;;;;;12.10;100.00;97876.91;5040501;28;20445;-80
2024/02/14 10:12:51;;;;;;;4.80;1.65;;;;;;;11.76;100.00;97849.69;5038849;28;20401;-80
2024/02/14 10:15:18;;;;;;;2.17;1.42;;;;;;;11.70;100.00;97828.66;5038022;28;20768;-81
2024/02/14 10:17:44;;;;;;;3.30;1.42;;;;;;;11.41;100.00;97839.44;5038743;28;20405;-82
2024/02/14 10:20:11;;;;;;;1.60;1.17;;;;;;;11.23;100.00;97853.75;5037344;28;20844;-80
2024/02/14 10:22:38;;;;;;;2.80;1.50;;;;;;;10.77;100.00;97840.84;5038873;28;20422;-81
2024/02/14 10:25:08;;;;;;;2.45;1.50;;;;;;;10.72;100.00;97835.47;5037281;28;20561;-81
2024/02/14 10:27:37;;;;;;;2.03;1.60;;;;;;;11.13;100.00;97834.25;5041269;28;20426;-81
2024/02/14 10:30:09;;;;;;;2.40;1.40;;;;;;;11.89;100.00;97840.56;5038739;28;20397;-82
2024/02/14 10:32:36;;;;;;;2.37;1.43;;;;;;;12.84;100.00;97841.75;5037624;28;20753;-81
2024/02/14 10:35:04;;;;;;;2.58;1.30;;;;;;;13.20;100.00;97833.00;5038511;28;20415;-81
2024/02/14 10:37:30;;;;;;;3.22;1.42;;;;;;;13.27;100.00;97836.25;5032156;28;20490;-80
2024/02/14 10:40:01;;;;;;;3.80;1.60;;;;;;;13.36;100.00;97837.38;5036181;28;20479;-81
2024/02/14 10:42:29;;;;;;;3.20;1.70;;;;;;;13.35;100.00;97821.66;5025313;28;20456;-80
2024/02/14 10:44:55;;;;;;;1.98;1.30;;;;;;;13.42;100.00;97819.56;5037232;28;20415;-79
2024/02/14 10:47:29;;;;;;;1.80;1.15;;;;;;;13.43;100.00;97815.84;5038932;28;20513;-80
2024/02/14 10:50:00;;;;;;;1.30;1.20;;;;;;;13.53;100.00;97814.03;5041106;28;20403;-78
2024/02/14 10:52:29;;;;;;;1.50;1.10;;;;;;;14.08;100.00;97820.63;5043337;28;20412;-80
2024/02/14 10:54:57;;;;;;;2.53;1.33;;;;;;;14.94;100.00;97814.59;5041439;28;20887;-80
2024/02/14 10:57:24;;;;;;;3.45;1.33;;;;;;;14.81;100.00;97815.91;5043007;28;20457;-82
2024/02/14 10:59:54;;;;;;;3.83;1.70;;;;;;;14.35;100.00;97807.09;5035742;28;20496;-83
2024/02/14 11:02:22;;;;;;;3.50;1.50;;;;;;;13.60;100.00;97813.00;5046004;28;20407;-80
2024/02/14 11:04:53;;;;;;;3.22;1.60;;;;;;;13.11;100.00;97826.53;5047762;28;20411;-80
2024/02/14 11:07:24;;;;;;;3.05;1.60;;;;;;;12.88;100.00;97835.66;5043256;28;20398;-81
2024/02/14 11:10:04;;;;;;;2.92;1.45;;;;;;;12.60;100.00;97842.09;5043626;28;20426;-80
2024/02/14 11:12:34;;;;;;;3.30;1.50;;;;;;;12.25;100.00;97841.78;5044263;28;20486;-80
2024/02/14 11:15:08;;;;;;;1.88;1.35;;;;;;;11.80;100.00;97834.88;5041694;28;20964;-80
2024/02/14 11:17:34;;;;;;;2.13;1.42;;;;;;;11.44;100.00;97841.56;5044331;28;20403;-81
2024/02/14 11:20:14;;;;;;;1.45;1.30;;;;;;;11.28;100.00;97845.06;5043695;28;20396;-80
2024/02/14 11:22:49;;;;;;;2.28;1.40;;;;;;;11.15;100.00;97835.59;5026482;28;20476;-80
2024/02/14 11:25:16;;;;;;;2.30;1.42;;;;;;;10.90;100.00;97837.88;5024912;28;20408;-80
2024/02/14 11:27:45;;;;;;;2.08;1.50;;;;;;;10.84;100.00;97852.09;5024287;28;20394;-80
2024/02/14 11:30:14;;;;;;;1.70;1.20;;;;;;;10.69;100.00;97851.84;5035543;28;20391;-80